首页
METAR-TAF:

METAR-TAF

机场 :

石油平台 Norsk Hydro

Oseberg, 挪威

纬度: 60-29-29N, 经度: 2-49-32E, 海拔: 158米

当前天气观测

该预报发布于30分钟前的04:20 UTC
风速22节,风向
温度 6°C
湿度 61%
气压 1011 hPa
能见度10公里或以上
多云层高于3000英尺

METAR: ENOA 190420Z 35022KT 9999 BKN030 06/M01 Q1011 W///S4

时间: 05:50 (04:50 UTC)

预报

预报有效从19日的 03点(UTC)到 20日的 03点(UTC)
风速25节,风向
能见度10公里或以上
少量云层高于1500英尺, 塔状积云.
散云层高于2500英尺
小阵雨
成为
从 19日的 10点(UTC)到 19日的 12点(UTC)
风速15节,风向北转西北
成为
从 19日的 18点(UTC)到 19日的 20点(UTC)
风速8节,风向西
成为
从 20日的 01点(UTC)到 20日的 03点(UTC)
风速10节,风向南转西南

TAF: ENOA 1903/2003 36025KT 9999 -SHRA FEW015TCU SCT025 BECMG 1910/1912 34015KT BECMG 1918/1920 26008KT BECMG 2001/2003 20010KT

超过4000个机场的气象观测和天气预报(METAR&TAF报告)。

可查询的气象台以黄色和红色小点在地图上表示。

将鼠标移到小点上方,可查看气象台名称。

然后点击查看天气观测和预报。

如需切换地图:点击带黑十字的绿色按钮放大地图;点击带横线的绿色按钮缩小地图;或者点击绿色箭头查看邻近地区的地图。


METAR-TAF: